Overton RPC :: 200

liberation: 2022-05-21  07:00     latitude: 33.575198     longitude: -86.664147 58 birds
# LOFT PRING MILES ARRIVAL SPEED ToWin
1 HONEY FARM LOFT IF21-MTN-1069 178.062 2022-05-21 08:24:22.863 3713.974 00:00:00
2 HONEY FARM LOFT AU21-NASH-9592 178.062 2022-05-21 10:25:46.999 1522.908 02:01:24
3 HONEY FARM LOFT IF21-FOYS-5486 178.062 2022-05-21 10:25:56.100 1521.786 02:01:33
4 HONEY FARM LOFT IF21-E-1540 178.062 2022-05-21 10:45:00.409 1392.798 02:20:38
5 VALHALLA LOFTS IF21-VALH-0111 210.359 2022-05-21 11:38:41.705 1328.451 02:59:01
6 VALHALLA LOFTS AU21-ARPU-8997 210.359 2022-05-21 11:38:49.784 1327.809 02:59:09
7 VALHALLA LOFTS IF22-VALH-0093 210.359 2022-05-21 12:11:05.267 1190.123 03:31:24
8 VALHALLA LOFTS IF20-VALH-0023 210.359 2022-05-21 12:11:11.104 1189.751 03:31:30
9 VALHALLA LOFTS AU21-ARPU-8989 210.359 2022-05-21 12:11:21.364 1189.097 03:31:40
10 PHILBETTER LOFT IF21-E-1553 204.506 2022-05-21 12:03:03.529 1187.661 03:26:09
11 VALHALLA LOFTS IF20-VALH-0024 210.359 2022-05-21 12:16:09.394 1171.042 03:36:28
12 VALHALLA LOFTS IF21-VALH-0192 210.359 2022-05-21 12:16:11.946 1170.885 03:36:31
13 VALHALLA LOFTS AU21-BREW-2154 210.359 2022-05-21 12:16:41.589 1169.058 03:37:00
14 VALHALLA LOFTS IF21-VALH-0169 210.359 2022-05-21 12:21:04.419 1153.108 03:41:23
15 VALHALLA LOFTS AU21-ARPU-8999 210.359 2022-05-21 12:22:29.510 1148.037 03:42:48
16 VALHALLA LOFTS IF21-VALH-0135 210.359 2022-05-21 12:22:55.932 1146.472 03:43:15
17 VALHALLA LOFTS IF21-E-1591 210.359 2022-05-21 12:24:52.449 1139.619 03:45:11
18 VALHALLA LOFTS IF21-VALH-0195 210.359 2022-05-21 12:31:28.101 1116.947 03:51:47
19 VALHALLA LOFTS IF20-VALH-0020 210.359 2022-05-21 12:32:16.187 1114.253 03:52:35
20 VALHALLA LOFTS IF21-VALH-0123 210.359 2022-05-21 12:32:20.026 1114.039 03:52:39
21 VALHALLA LOFTS IF21-VALH-0184 210.359 2022-05-21 12:32:27.018 1113.648 03:52:46
22 VALHALLA LOFTS IF20-VALH-0042 210.359 2022-05-21 12:32:28.509 1113.565 03:52:47
23 VALHALLA LOFTS AU21-POP-0537 210.359 2022-05-21 12:32:50.430 1112.343 03:53:09
24 VALHALLA LOFTS IF21-VALH-0151 210.359 2022-05-21 12:41:35.237 1083.860 04:01:54
25 VALHALLA LOFTS IF21-E-1580 210.359 2022-05-21 12:42:20.883 1081.451 04:02:40
26 VALHALLA LOFTS IF21-E-1600 210.359 2022-05-21 12:47:35.812 1065.121 04:07:55
27 VALHALLA LOFTS IF20-VALH-0010 210.359 2022-05-21 12:47:42.138 1064.798 04:08:01
28 VALHALLA LOFTS IF21-VALH-0183 210.359 2022-05-21 12:47:42.507 1064.779 04:08:01
29 VALHALLA LOFTS IF21-VALH-0118 210.359 2022-05-21 12:47:46.811 1064.559 04:08:06
30 VALHALLA LOFTS IF21-VALH-0112 210.359 2022-05-21 13:12:40.116 993.463 04:32:59
31 HONEY FARM LOFT IF21-ORP-0529 178.062 2022-05-21 12:21:08.049 975.882 03:56:45
32 HONEY FARM LOFT IF21-FOYS-5494 178.062 2022-05-21 12:27:32.804 956.776 04:03:10
33 HONEY FARM LOFT IF21-FOYS-5480 178.062 2022-05-21 12:32:58.769 941.166 04:08:36
34 HONEY FARM LOFT IF21-SCHO-2307 178.062 2022-05-21 13:26:47.077 810.242 05:02:24
35 HONEY FARM LOFT AU21-NASH-9544 178.062 2022-05-21 13:35:08.498 793.106 05:10:46
36 PHILBETTER LOFT IF21-E-1584 204.506 2022-05-21 14:54:46.894 758.099 06:17:52
37 LET IT GO LOFT IF21-ORP-0129 217.162 2022-05-21 15:48:26.527 723.268 07:05:32
38 VALHALLA LOFTS IF20-VALH-0025 210.359 2022-05-21 17:08:55.417 608.012 08:29:14
39 VALHALLA LOFTS IF21-E-1574 210.359 2022-05-21 17:35:39.713 582.436 08:55:59
40 LET IT GO LOFT IF21-ORP-0479 217.162 2022-05-21 18:23:45.590 558.976 09:40:51
HONEY FARM LOFT IF21-E-1363 0 0000-00-00 00:00:00.000 0.000 00:00:00
HONEY FARM LOFT IF21-ORP-0436 0 0000-00-00 00:00:00.000 0.000 00:00:00
HONEY FARM LOFT IF21-SCHO-2305 0 0000-00-00 00:00:00.000 0.000 00:00:00
LET IT GO LOFT IF21-ORP-0113 0 0000-00-00 00:00:00.000 0.000 00:00:00
LET IT GO LOFT IF21-ORP-0403 0 0000-00-00 00:00:00.000 0.000 00:00:00
LET IT GO LOFT IF21-ORP-0478 0 0000-00-00 00:00:00.000 0.000 00:00:00
PHILBETTER LOFT AU21-ARPU-8998 0 0000-00-00 00:00:00.000 0.000 00:00:00
PHILBETTER LOFT IF21-E-1552 0 0000-00-00 00:00:00.000 0.000 00:00:00
PHILBETTER LOFT IF21-E-1556 0 0000-00-00 00:00:00.000 0.000 00:00:00
PHILBETTER LOFT IF21-E-1560 0 0000-00-00 00:00:00.000 0.000 00:00:00
PHILBETTER LOFT IF21-E-1567 0 0000-00-00 00:00:00.000 0.000 00:00:00
PHILBETTER LOFT IF21-VALH-0119 0 0000-00-00 00:00:00.000 0.000 00:00:00
PHILBETTER LOFT IF21-VALH-0191 0 0000-00-00 00:00:00.000 0.000 00:00:00
VALHALLA LOFTS IF20-VALH-0027 0 0000-00-00 00:00:00.000 0.000 00:00:00
VALHALLA LOFTS IF20-VALH-0048 0 0000-00-00 00:00:00.000 0.000 00:00:00
VALHALLA LOFTS IF20-VALH-0087 0 0000-00-00 00:00:00.000 0.000 00:00:00
VALHALLA LOFTS IF21-VALH-0166 0 0000-00-00 00:00:00.000 0.000 00:00:00
VALHALLA LOFTS IF21-VALH-0188 0 0000-00-00 00:00:00.000 0.000 00:00:00